This is the latest recevied weather packets stored in our database for station/object WA7CUG. If no packets are shown the sender has not sent any weather packets the latest 10 day(s).
| Time | Temp. | Humidity | Pressure | Rain* | Wind** | Luminosity | Snow |
|---|---|---|---|---|---|---|---|
| 1777318277 | 20.56° C | 32% | 1012.1 hPa | 0 mm | - | 639 W/m² | - |
| 1777317974 | 20° C | 33% | 1012.3 hPa | 0 mm | - | 701 W/m² | - |
| 1777317671 | 19.44° C | 34% | 1012.3 hPa | 0 mm | - | 673 W/m² | - |
| 1777317368 | 20° C | 33% | 1012.3 hPa | 0 mm | - | 661 W/m² | - |
| 1777317063 | 19.44° C | 31% | 1012.2 hPa | 0 mm | - | 660 W/m² | - |
| 1777316761 | 19.44° C | 32% | 1012.2 hPa | 0 mm | - | 650 W/m² | - |
| 1777316457 | 18.89° C | 34% | 1012.4 hPa | 0 mm | - | 643 W/m² | - |
| 1777316154 | 17.78° C | 34% | 1012.6 hPa | 0 mm | - | 636 W/m² | - |
| 1777315852 | 18.33° C | 36% | 1012.8 hPa | 0 mm | - | 630 W/m² | - |
| 1777315551 | 17.78° C | 34% | 1012.7 hPa | 0 mm | - | 624 W/m² | - |
| 1777315248 | 17.78° C | 36% | 1012.7 hPa | 0 mm | - | 617 W/m² | - |
| 1777314945 | 17.78° C | 35% | 1012.8 hPa | 0 mm | - | 610 W/m² | - |
| 1777314641 | 17.78° C | 38% | 1012.9 hPa | 0 mm | - | 600 W/m² | - |
| 1777314338 | 16.67° C | 38% | 1012.9 hPa | 0 mm | - | 583 W/m² | - |
| 1777314035 | 17.22° C | 42% | 1013.1 hPa | 0 mm | - | 600 W/m² | - |
| 1777313733 | 16.67° C | 40% | 1013 hPa | 0 mm | - | 585 W/m² | - |
| 1777313430 | 16.67° C | 45% | 1013.3 hPa | 0 mm | - | 537 W/m² | - |
| 1777313126 | 16.67° C | 41% | 1013.3 hPa | 0 mm | - | 520 W/m² | - |
| 1777312822 | 16.67° C | 43% | 1013.3 hPa | 0 mm | - | 546 W/m² | - |
| 1777312520 | 16.11° C | 45% | 1013.4 hPa | 0 mm | - | 593 W/m² | - |
| 1777312216 | 16.67° C | 46% | 1013.5 hPa | 0 mm | - | 429 W/m² | - |
| 1777311914 | 16.67° C | 43% | 1013.6 hPa | 0 mm | - | 551 W/m² | - |
| 1777311610 | 16.11° C | 45% | 1013.5 hPa | 0 mm | - | 526 W/m² | - |
| 1777311308 | 16.11° C | 44% | 1013.3 hPa | 0 mm | - | 524 W/m² | - |
| 1777311005 | 15.56° C | 46% | 1013.6 hPa | 0 mm | - | 512 W/m² | - |
* Rain latest hour (hover to see other rain measurements)
** Current wind speed in m/s (hover to see current wind gust speed)